• Join FlightAware (Why Join?)
  • Login
  • US Flag 
12:35PM EDT


 

Airport Tracker/Info


-or-


 

Live Flight TrackerFlight Track Log ✈ N2290L ✈ 30-Apr-2013 ✈ KTDW - KCNM

Flight Track Log - Related Links

Times and Time Zones

All times are in EDT time to prevent confusion due to time zone crossing. See the N2290L flight status page for this flight to view local times or setup timezone preferences in your user account.

Time Position Orientation Groundspeed Altitude Reporting Facility
EDT Latitude Longitude Course Direction KTS MPH feet Rate Location/Type
09:21AM 35.1247 -101.8881 216° Southwest 92 106 5,700  Level Albuquerque Center
09:22AM 35.1014 -101.9092 217° Southwest 99 114 6,400 600 Climbing Albuquerque Center
09:23AM 35.0747 -101.9328 216° Southwest 111 128 7,000 540 Climbing Albuquerque Center
09:24AM 35.0492 -101.9544 215° Southwest 113 130 7,600 540 Climbing Albuquerque Center
09:25AM 35.0010 -101.9771 216° Southwest  Level Estimated
09:25AM 35.0233 -101.9775 216° Southwest 114 131 8,100  Level Albuquerque Center
09:26AM 34.9728 -102.0022 216° Southwest  Level Estimated
09:26AM 34.9967 -102.0014 216° Southwest 117 135 8,400  Level Albuquerque Center
09:27AM 34.9647 -102.0317 218° Southwest 138 159 8,500  Climbing Albuquerque Center
09:28AM 34.9294 -102.0622 215° Southwest 152 175 8,500  Level Albuquerque Center
09:29AM 34.8872 -102.0975 214° Southwest 154 177 8,500  Level Albuquerque Center
09:31AM 34.8335 -102.1247 203° Southwest  Level FlightAware Approximate
09:38AM 34.6292 -102.2924 217° Southwest  Level FlightAware Approximate
09:39AM 34.6014 -102.3180 217° Southwest  Level FlightAware Approximate
09:40AM 34.5736 -102.3436 217° Southwest  Level FlightAware Approximate
09:41AM 34.5444 -102.3667 212° Southwest  Level FlightAware Approximate
09:42AM 34.5147 -102.3890 212° Southwest  Level FlightAware Approximate
09:43AM 34.4859 -102.4127 217° Southwest  Level FlightAware Approximate
09:44AM 34.4579 -102.4380 217° Southwest  Level FlightAware Approximate
09:45AM 34.4299 -102.4632 217° Southwest  Level FlightAware Approximate
09:46AM 34.4019 -102.4884 217° Southwest  Level FlightAware Approximate
09:47AM 34.3738 -102.5136 217° Southwest  Level FlightAware Approximate
09:48AM 34.3458 -102.5388 217° Southwest  Level FlightAware Approximate
09:49AM 34.3177 -102.5639 216° Southwest  Level FlightAware Approximate
09:50AM 34.2896 -102.5888 216° Southwest  Level FlightAware Approximate
09:51AM 34.2614 -102.6137 216° Southwest  Level FlightAware Approximate
09:52AM 34.2332 -102.6387 216° Southwest  Level FlightAware Approximate
09:53AM 34.2051 -102.6636 216° Southwest  Level FlightAware Approximate
09:54AM 34.1769 -102.6885 216° Southwest  Level FlightAware Approximate
09:55AM 34.1487 -102.7133 216° Southwest  Level FlightAware Approximate
09:56AM 34.1205 -102.7382 216° Southwest  Level FlightAware Approximate
09:57AM 34.0923 -102.7630 216° Southwest  Level FlightAware Approximate
09:58AM 34.0641 -102.7878 216° Southwest  Level FlightAware Approximate
09:59AM 34.0359 -102.8126 216° Southwest  Level FlightAware Approximate
10:00AM 34.0077 -102.8374 216° Southwest  Level FlightAware Approximate
10:01AM 33.9795 -102.8622 216° Southwest  Level FlightAware Approximate
10:02AM 33.9513 -102.8870 216° Southwest  Level FlightAware Approximate
10:03AM 33.9230 -102.9117 216° Southwest  Level FlightAware Approximate
10:04AM 33.8948 -102.9364 216° Southwest  Level FlightAware Approximate
10:05AM 33.8666 -102.9611 216° Southwest  Level FlightAware Approximate
10:06AM 33.8383 -102.9858 216° Southwest  Level FlightAware Approximate
10:07AM 33.8101 -103.0105 216° Southwest  Level FlightAware Approximate
10:08AM 33.7819 -103.0351 216° Southwest  Level FlightAware Approximate
10:09AM 33.7536 -103.0598 216° Southwest  Level FlightAware Approximate
10:10AM 33.7254 -103.0844 216° Southwest  Level FlightAware Approximate
10:11AM 33.6971 -103.1090 216° Southwest  Level FlightAware Approximate
10:12AM 33.6688 -103.1336 216° Southwest  Level FlightAware Approximate
10:13AM 33.6403 -103.1578 214° Southwest  Level FlightAware Approximate
10:14AM 33.6113 -103.1810 214° Southwest  Level FlightAware Approximate
10:15AM 33.5823 -103.2043 214° Southwest  Level FlightAware Approximate
10:16AM 33.5532 -103.2275 214° Southwest  Level FlightAware Approximate
10:17AM 33.5242 -103.2507 214° Southwest  Level FlightAware Approximate
10:18AM 33.4952 -103.2739 214° Southwest  Level FlightAware Approximate
10:19AM 33.4666 -103.2980 216° Southwest  Level FlightAware Approximate
10:20AM 33.4385 -103.3227 216° Southwest  Level FlightAware Approximate
10:21AM 33.4103 -103.3474 216° Southwest  Level FlightAware Approximate
10:22AM 33.3821 -103.3720 216° Southwest  Level FlightAware Approximate
10:23AM 33.3540 -103.3967 216° Southwest  Level FlightAware Approximate
10:24AM 33.3258 -103.4213 216° Southwest  Level FlightAware Approximate
10:25AM 33.2976 -103.4459 216° Southwest  Level FlightAware Approximate
10:26AM 33.2694 -103.4705 216° Southwest  Level FlightAware Approximate
10:27AM 33.2412 -103.4951 216° Southwest  Level FlightAware Approximate
10:28AM 33.2130 -103.5196 216° Southwest  Level FlightAware Approximate
10:29AM 33.1848 -103.5442 216° Southwest  Level FlightAware Approximate
10:30AM 33.1566 -103.5687 216° Southwest  Level FlightAware Approximate
10:31AM 33.1283 -103.5932 216° Southwest  Level FlightAware Approximate
10:32AM 33.1001 -103.6177 216° Southwest  Level FlightAware Approximate
10:33AM 33.0719 -103.6422 216° Southwest  Level FlightAware Approximate
10:34AM 33.0437 -103.6667 216° Southwest  Level FlightAware Approximate
10:35AM 33.0154 -103.6911 216° Southwest  Level FlightAware Approximate
10:36AM 32.9872 -103.7156 216° Southwest  Level FlightAware Approximate
10:37AM 32.9586 -103.7394 212° Southwest  Level FlightAware Approximate
10:38AM 32.9291 -103.7616 212° Southwest  Level FlightAware Approximate
10:39AM 32.8995 -103.7837 212° Southwest  Level FlightAware Approximate
10:40AM 32.8700 -103.8059 212° Southwest  Level FlightAware Approximate
10:41AM 32.8405 -103.8280 212° Southwest  Level FlightAware Approximate
10:42AM 32.8119 -103.8518 216° Southwest  Level FlightAware Approximate
10:43AM 32.7836 -103.8761 216° Southwest  Level FlightAware Approximate
10:44AM 32.7553 -103.9004 216° Southwest  Level FlightAware Approximate
10:45AM 32.7270 -103.9246 216° Southwest  Level FlightAware Approximate
10:46AM 32.6987 -103.9489 216° Southwest  Level FlightAware Approximate
10:47AM 32.6704 -103.9731 216° Southwest  Level FlightAware Approximate
10:48AM 32.6421 -103.9974 216° Southwest  Level FlightAware Approximate
10:49AM 32.6138 -104.0216 216° Southwest  Level FlightAware Approximate
10:50AM 32.5856 -104.0460 216° Southwest  Level FlightAware Approximate
10:51AM 32.5575 -104.0706 216° Southwest  Level FlightAware Approximate
10:52AM 32.5294 -104.0952 216° Southwest  Level FlightAware Approximate
10:53AM 32.5013 -104.1197 216° Southwest  Level FlightAware Approximate
10:54AM 32.4732 -104.1443 216° Southwest  Level FlightAware Approximate
10:55AM 32.4434 -104.1655 209° Southwest  Level FlightAware Approximate
10:56AM 32.4131 -104.1862 214° Southwest  Level FlightAware Approximate
10:57AM 32.3842 -104.2093 214° Southwest  Level FlightAware Approximate
10:58AM 32.3553 -104.2324 214° Southwest  Level FlightAware Approximate
10:59AM 32.3333 -104.2500 214° Southwest  Level FlightAware Approximate
11:00AM 32.3374 -104.2634 214° Southwest  Level Estimated
11:01AM 32.3374 -104.2634 214° Southwest  Level Estimated
11:02AM 32.3374 -104.2634 214° Southwest  Level Estimated
11:03AM 32.3374 -104.2634 214° Southwest  Level Estimated
11:04AM 32.3374 -104.2634 214° Southwest  Level Estimated
11:05AM 32.3374 -104.2634 214° Southwest  Level Estimated
11:06AM 32.3374 -104.2634 214° Southwest  Level Estimated
11:07AM 32.3374 -104.2634 214° Southwest  Level Estimated
11:08AM 32.3374 -104.2634 214° Southwest  Level Estimated
11:09AM 32.3374 -104.2634 214° Southwest  Level Estimated
11:10AM 32.3374 -104.2634 214° Southwest  Level Estimated
11:11AM 32.3374 -104.2634 214° Southwest  Level Estimated
11:12AM 32.3374 -104.2634 214° Southwest  Level Estimated
11:13AM 32.3374 -104.2634 214° Southwest  Level Estimated
11:14AM 32.3374 -104.2634 214° Southwest  Level Estimated